sensor_id;sensor_type;location;lat;lon;timestamp;P1;durP1;ratioP1;P2;durP2;ratioP2
84993;SDS011;75309;44.830;20.460;2024-03-07T00:01:40;22.60;;;12.70;;
84993;SDS011;75309;44.830;20.460;2024-03-07T00:04:06;21.90;;;12.40;;
84993;SDS011;75309;44.830;20.460;2024-03-07T00:06:33;22.00;;;13.00;;
84993;SDS011;75309;44.830;20.460;2024-03-07T00:09:00;23.30;;;13.70;;
84993;SDS011;75309;44.830;20.460;2024-03-07T00:11:26;25.70;;;13.10;;
84993;SDS011;75309;44.830;20.460;2024-03-07T00:13:54;26.40;;;13.30;;
84993;SDS011;75309;44.830;20.460;2024-03-07T00:16:22;23.40;;;13.30;;
84993;SDS011;75309;44.830;20.460;2024-03-07T00:18:49;24.70;;;14.00;;
84993;SDS011;75309;44.830;20.460;2024-03-07T00:21:16;24.20;;;12.80;;
84993;SDS011;75309;44.830;20.460;2024-03-07T00:23:43;23.70;;;12.50;;
84993;SDS011;75309;44.830;20.460;2024-03-07T00:26:10;23.00;;;12.80;;
84993;SDS011;75309;44.830;20.460;2024-03-07T00:28:37;24.30;;;12.90;;
84993;SDS011;75309;44.830;20.460;2024-03-07T00:31:05;23.50;;;13.50;;
84993;SDS011;75309;44.830;20.460;2024-03-07T00:33:33;25.40;;;14.30;;
84993;SDS011;75309;44.830;20.460;2024-03-07T00:36:20;23.40;;;13.60;;
84993;SDS011;75309;44.830;20.460;2024-03-07T00:38:47;24.00;;;13.00;;
84993;SDS011;75309;44.830;20.460;2024-03-07T00:41:14;23.60;;;13.50;;
84993;SDS011;75309;44.830;20.460;2024-03-07T00:43:43;25.10;;;12.90;;
84993;SDS011;75309;44.830;20.460;2024-03-07T00:46:10;26.90;;;13.70;;
84993;SDS011;75309;44.830;20.460;2024-03-07T00:48:37;24.10;;;12.30;;
84993;SDS011;75309;44.830;20.460;2024-03-07T00:51:04;21.10;;;11.40;;
84993;SDS011;75309;44.830;20.460;2024-03-07T00:53:31;22.10;;;12.50;;
84993;SDS011;75309;44.830;20.460;2024-03-07T00:55:57;25.50;;;12.90;;
84993;SDS011;75309;44.830;20.460;2024-03-07T00:58:24;24.10;;;13.10;;
84993;SDS011;75309;44.830;20.460;2024-03-07T01:00:51;22.70;;;12.30;;
84993;SDS011;75309;44.830;20.460;2024-03-07T01:03:17;22.30;;;11.50;;
84993;SDS011;75309;44.830;20.460;2024-03-07T01:05:44;21.60;;;12.20;;
84993;SDS011;75309;44.830;20.460;2024-03-07T01:08:11;22.80;;;12.20;;
84993;SDS011;75309;44.830;20.460;2024-03-07T01:10:38;23.00;;;12.00;;
84993;SDS011;75309;44.830;20.460;2024-03-07T01:13:04;25.20;;;12.50;;
84993;SDS011;75309;44.830;20.460;2024-03-07T01:15:34;23.20;;;11.60;;
84993;SDS011;75309;44.830;20.460;2024-03-07T01:18:00;22.10;;;11.90;;
84993;SDS011;75309;44.830;20.460;2024-03-07T01:20:27;21.60;;;11.80;;
84993;SDS011;75309;44.830;20.460;2024-03-07T01:22:56;21.70;;;11.70;;
84993;SDS011;75309;44.830;20.460;2024-03-07T01:27:49;20.20;;;11.60;;
84993;SDS011;75309;44.830;20.460;2024-03-07T01:30:17;23.00;;;11.80;;
84993;SDS011;75309;44.830;20.460;2024-03-07T01:32:44;22.80;;;11.80;;
84993;SDS011;75309;44.830;20.460;2024-03-07T01:35:12;22.70;;;11.20;;
84993;SDS011;75309;44.830;20.460;2024-03-07T01:37:39;23.80;;;12.10;;
84993;SDS011;75309;44.830;20.460;2024-03-07T01:40:06;21.40;;;11.20;;
84993;SDS011;75309;44.830;20.460;2024-03-07T01:42:34;21.70;;;11.30;;
84993;SDS011;75309;44.830;20.460;2024-03-07T01:45:02;23.20;;;13.00;;
84993;SDS011;75309;44.830;20.460;2024-03-07T01:47:29;22.50;;;12.60;;
84993;SDS011;75309;44.830;20.460;2024-03-07T01:49:57;21.90;;;12.20;;
84993;SDS011;75309;44.830;20.460;2024-03-07T01:52:25;24.20;;;12.30;;
84993;SDS011;75309;44.830;20.460;2024-03-07T01:54:52;21.10;;;11.70;;
84993;SDS011;75309;44.830;20.460;2024-03-07T01:57:19;23.80;;;12.20;;
84993;SDS011;75309;44.830;20.460;2024-03-07T01:59:45;19.80;;;10.70;;
84993;SDS011;75309;44.830;20.460;2024-03-07T02:02:14;22.00;;;11.70;;
84993;SDS011;75309;44.830;20.460;2024-03-07T02:04:40;22.10;;;11.90;;
84993;SDS011;75309;44.830;20.460;2024-03-07T02:07:07;20.30;;;11.20;;
84993;SDS011;75309;44.830;20.460;2024-03-07T02:09:37;19.30;;;10.50;;
84993;SDS011;75309;44.830;20.460;2024-03-07T02:12:06;23.20;;;12.30;;
84993;SDS011;75309;44.830;20.460;2024-03-07T02:14:33;23.20;;;12.60;;
84993;SDS011;75309;44.830;20.460;2024-03-07T02:17:00;27.30;;;13.20;;
84993;SDS011;75309;44.830;20.460;2024-03-07T02:19:26;24.20;;;12.40;;
84993;SDS011;75309;44.830;20.460;2024-03-07T02:21:53;22.20;;;11.80;;
84993;SDS011;75309;44.830;20.460;2024-03-07T02:24:20;24.40;;;12.40;;
84993;SDS011;75309;44.830;20.460;2024-03-07T02:26:46;23.40;;;12.10;;
84993;SDS011;75309;44.830;20.460;2024-03-07T02:29:13;21.80;;;11.80;;
84993;SDS011;75309;44.830;20.460;2024-03-07T02:31:40;19.70;;;11.00;;
84993;SDS011;75309;44.830;20.460;2024-03-07T02:34:07;23.70;;;13.00;;
84993;SDS011;75309;44.830;20.460;2024-03-07T02:36:34;22.90;;;11.90;;
84993;SDS011;75309;44.830;20.460;2024-03-07T02:39:00;22.30;;;10.90;;
84993;SDS011;75309;44.830;20.460;2024-03-07T02:41:27;23.10;;;12.00;;
84993;SDS011;75309;44.830;20.460;2024-03-07T02:43:54;21.60;;;12.10;;
84993;SDS011;75309;44.830;20.460;2024-03-07T02:46:20;21.70;;;12.40;;
84993;SDS011;75309;44.830;20.460;2024-03-07T02:48:47;23.50;;;11.80;;
84993;SDS011;75309;44.830;20.460;2024-03-07T02:51:14;22.20;;;11.70;;
84993;SDS011;75309;44.830;20.460;2024-03-07T02:53:40;21.30;;;11.90;;
84993;SDS011;75309;44.830;20.460;2024-03-07T02:56:07;24.00;;;11.60;;
84993;SDS011;75309;44.830;20.460;2024-03-07T02:58:34;20.60;;;11.30;;
84993;SDS011;75309;44.830;20.460;2024-03-07T03:01:01;21.50;;;11.40;;
84993;SDS011;75309;44.830;20.460;2024-03-07T03:05:59;19.30;;;10.70;;
84993;SDS011;75309;44.830;20.460;2024-03-07T03:08:26;24.00;;;12.00;;
84993;SDS011;75309;44.830;20.460;2024-03-07T03:10:54;21.00;;;12.40;;
84993;SDS011;75309;44.830;20.460;2024-03-07T03:15:54;23.40;;;12.10;;
84993;SDS011;75309;44.830;20.460;2024-03-07T03:18:22;19.70;;;10.80;;
84993;SDS011;75309;44.830;20.460;2024-03-07T03:20:50;22.50;;;11.70;;
84993;SDS011;75309;44.830;20.460;2024-03-07T03:23:19;21.00;;;10.70;;
84993;SDS011;75309;44.830;20.460;2024-03-07T03:25:48;21.80;;;11.60;;
84993;SDS011;75309;44.830;20.460;2024-03-07T03:28:16;23.70;;;11.40;;
84993;SDS011;75309;44.830;20.460;2024-03-07T03:30:45;19.50;;;9.80;;
84993;SDS011;75309;44.830;20.460;2024-03-07T03:33:11;22.40;;;11.10;;
84993;SDS011;75309;44.830;20.460;2024-03-07T03:35:39;22.50;;;11.70;;
84993;SDS011;75309;44.830;20.460;2024-03-07T03:38:06;21.50;;;10.60;;
84993;SDS011;75309;44.830;20.460;2024-03-07T03:40:34;19.70;;;10.80;;
84993;SDS011;75309;44.830;20.460;2024-03-07T03:43:02;20.80;;;10.70;;
84993;SDS011;75309;44.830;20.460;2024-03-07T03:45:29;21.60;;;10.80;;
84993;SDS011;75309;44.830;20.460;2024-03-07T03:48:00;20.70;;;9.90;;
84993;SDS011;75309;44.830;20.460;2024-03-07T03:50:27;21.00;;;10.80;;
84993;SDS011;75309;44.830;20.460;2024-03-07T03:52:54;20.50;;;10.70;;
84993;SDS011;75309;44.830;20.460;2024-03-07T03:55:23;20.10;;;10.40;;
84993;SDS011;75309;44.830;20.460;2024-03-07T03:57:50;20.60;;;10.30;;
84993;SDS011;75309;44.830;20.460;2024-03-07T04:00:17;18.30;;;10.20;;
84993;SDS011;75309;44.830;20.460;2024-03-07T04:02:45;22.00;;;10.80;;
84993;SDS011;75309;44.830;20.460;2024-03-07T04:05:17;21.60;;;11.40;;
84993;SDS011;75309;44.830;20.460;2024-03-07T04:07:46;19.70;;;10.50;;
84993;SDS011;75309;44.830;20.460;2024-03-07T04:10:14;20.90;;;10.50;;
84993;SDS011;75309;44.830;20.460;2024-03-07T04:12:42;22.30;;;11.20;;
84993;SDS011;75309;44.830;20.460;2024-03-07T04:15:13;20.40;;;10.90;;
84993;SDS011;75309;44.830;20.460;2024-03-07T04:17:42;18.30;;;9.30;;
84993;SDS011;75309;44.830;20.460;2024-03-07T04:20:11;21.60;;;9.90;;
84993;SDS011;75309;44.830;20.460;2024-03-07T04:22:39;22.50;;;10.50;;
84993;SDS011;75309;44.830;20.460;2024-03-07T04:25:06;21.10;;;10.80;;
84993;SDS011;75309;44.830;20.460;2024-03-07T04:30:03;16.80;;;9.00;;
84993;SDS011;75309;44.830;20.460;2024-03-07T04:32:31;19.10;;;10.00;;
84993;SDS011;75309;44.830;20.460;2024-03-07T04:35:00;19.90;;;10.20;;
84993;SDS011;75309;44.830;20.460;2024-03-07T04:37:27;20.50;;;11.00;;
84993;SDS011;75309;44.830;20.460;2024-03-07T04:39:53;17.70;;;9.40;;
84993;SDS011;75309;44.830;20.460;2024-03-07T04:42:20;16.50;;;9.00;;
84993;SDS011;75309;44.830;20.460;2024-03-07T04:44:48;19.30;;;9.40;;
84993;SDS011;75309;44.830;20.460;2024-03-07T04:47:15;19.10;;;9.10;;
84993;SDS011;75309;44.830;20.460;2024-03-07T04:49:42;17.50;;;9.00;;
84993;SDS011;75309;44.830;20.460;2024-03-07T04:52:10;18.20;;;9.50;;
84993;SDS011;75309;44.830;20.460;2024-03-07T04:54:36;16.30;;;8.30;;
84993;SDS011;75309;44.830;20.460;2024-03-07T04:57:04;16.50;;;8.20;;
84993;SDS011;75309;44.830;20.460;2024-03-07T04:59:32;16.70;;;8.20;;
84993;SDS011;75309;44.830;20.460;2024-03-07T05:01:58;16.20;;;8.20;;
84993;SDS011;75309;44.830;20.460;2024-03-07T05:04:25;12.00;;;6.80;;
84993;SDS011;75309;44.830;20.460;2024-03-07T05:06:55;12.40;;;6.50;;
84993;SDS011;75309;44.830;20.460;2024-03-07T05:09:22;11.30;;;6.00;;
84993;SDS011;75309;44.830;20.460;2024-03-07T05:11:55;10.60;;;5.90;;
84993;SDS011;75309;44.830;20.460;2024-03-07T05:14:22;13.10;;;6.20;;
84993;SDS011;75309;44.830;20.460;2024-03-07T05:16:49;11.00;;;5.70;;
84993;SDS011;75309;44.830;20.460;2024-03-07T05:19:34;11.80;;;6.00;;
84993;SDS011;75309;44.830;20.460;2024-03-07T05:22:01;12.20;;;6.10;;
84993;SDS011;75309;44.830;20.460;2024-03-07T05:24:31;12.00;;;6.80;;
84993;SDS011;75309;44.830;20.460;2024-03-07T05:27:00;11.00;;;5.30;;
84993;SDS011;75309;44.830;20.460;2024-03-07T05:29:26;9.40;;;5.30;;
84993;SDS011;75309;44.830;20.460;2024-03-07T05:31:53;9.40;;;5.00;;
84993;SDS011;75309;44.830;20.460;2024-03-07T05:34:21;10.30;;;4.30;;
84993;SDS011;75309;44.830;20.460;2024-03-07T05:36:53;10.40;;;5.00;;
84993;SDS011;75309;44.830;20.460;2024-03-07T05:39:22;9.40;;;4.40;;
84993;SDS011;75309;44.830;20.460;2024-03-07T05:41:52;8.70;;;4.20;;
84993;SDS011;75309;44.830;20.460;2024-03-07T05:44:26;8.40;;;4.20;;
84993;SDS011;75309;44.830;20.460;2024-03-07T05:46:54;8.20;;;4.30;;
84993;SDS011;75309;44.830;20.460;2024-03-07T05:49:22;7.90;;;3.60;;
84993;SDS011;75309;44.830;20.460;2024-03-07T05:51:52;7.30;;;3.80;;
84993;SDS011;75309;44.830;20.460;2024-03-07T05:54:21;6.80;;;3.60;;
84993;SDS011;75309;44.830;20.460;2024-03-07T05:56:50;7.80;;;3.80;;
84993;SDS011;75309;44.830;20.460;2024-03-07T05:59:19;6.70;;;3.50;;
84993;SDS011;75309;44.830;20.460;2024-03-07T06:01:48;6.30;;;3.10;;
84993;SDS011;75309;44.830;20.460;2024-03-07T06:04:17;5.90;;;2.60;;
84993;SDS011;75309;44.830;20.460;2024-03-07T06:06:47;6.70;;;3.40;;
84993;SDS011;75309;44.830;20.460;2024-03-07T06:09:16;6.90;;;3.20;;
84993;SDS011;75309;44.830;20.460;2024-03-07T06:11:50;7.10;;;3.10;;
84993;SDS011;75309;44.830;20.460;2024-03-07T06:14:17;6.40;;;3.10;;
84993;SDS011;75309;44.830;20.460;2024-03-07T06:16:50;5.30;;;2.50;;
84993;SDS011;75309;44.830;20.460;2024-03-07T06:19:18;6.20;;;3.00;;
84993;SDS011;75309;44.830;20.460;2024-03-07T06:21:45;5.70;;;2.70;;
84993;SDS011;75309;44.830;20.460;2024-03-07T06:26:43;5.60;;;2.50;;
84993;SDS011;75309;44.830;20.460;2024-03-07T06:29:15;6.10;;;2.60;;
84993;SDS011;75309;44.830;20.460;2024-03-07T06:31:43;5.40;;;2.50;;
84993;SDS011;75309;44.830;20.460;2024-03-07T06:34:15;5.80;;;2.40;;
84993;SDS011;75309;44.830;20.460;2024-03-07T06:36:49;5.10;;;2.30;;
84993;SDS011;75309;44.830;20.460;2024-03-07T06:39:18;6.30;;;2.40;;
84993;SDS011;75309;44.830;20.460;2024-03-07T06:41:48;4.90;;;2.10;;
84993;SDS011;75309;44.830;20.460;2024-03-07T06:44:15;7.10;;;2.90;;
84993;SDS011;75309;44.830;20.460;2024-03-07T06:46:42;6.10;;;2.60;;
84993;SDS011;75309;44.830;20.460;2024-03-07T06:49:12;4.70;;;2.10;;
84993;SDS011;75309;44.830;20.460;2024-03-07T06:51:39;5.80;;;2.50;;
84993;SDS011;75309;44.830;20.460;2024-03-07T06:54:05;4.90;;;2.10;;
84993;SDS011;75309;44.830;20.460;2024-03-07T06:56:32;5.50;;;2.30;;
84993;SDS011;75309;44.830;20.460;2024-03-07T06:59:01;5.80;;;2.10;;
84993;SDS011;75309;44.830;20.460;2024-03-07T07:01:31;6.20;;;2.40;;
84993;SDS011;75309;44.830;20.460;2024-03-07T07:03:59;5.60;;;2.60;;
84993;SDS011;75309;44.830;20.460;2024-03-07T07:06:30;53.50;;;34.60;;
84993;SDS011;75309;44.830;20.460;2024-03-07T07:08:57;8.30;;;4.40;;
84993;SDS011;75309;44.830;20.460;2024-03-07T07:11:26;5.60;;;2.60;;
84993;SDS011;75309;44.830;20.460;2024-03-07T07:13:56;4.70;;;2.10;;
84993;SDS011;75309;44.830;20.460;2024-03-07T07:16:23;5.30;;;2.20;;
84993;SDS011;75309;44.830;20.460;2024-03-07T07:18:51;4.40;;;2.00;;
84993;SDS011;75309;44.830;20.460;2024-03-07T07:21:18;5.00;;;2.10;;
84993;SDS011;75309;44.830;20.460;2024-03-07T07:23:47;6.20;;;2.60;;
84993;SDS011;75309;44.830;20.460;2024-03-07T07:26:14;5.50;;;2.10;;
84993;SDS011;75309;44.830;20.460;2024-03-07T07:28:41;5.30;;;2.20;;
84993;SDS011;75309;44.830;20.460;2024-03-07T07:31:07;5.20;;;1.90;;
84993;SDS011;75309;44.830;20.460;2024-03-07T07:33:36;5.40;;;2.30;;
84993;SDS011;75309;44.830;20.460;2024-03-07T07:38:32;6.90;;;2.10;;
84993;SDS011;75309;44.830;20.460;2024-03-07T07:41:00;5.90;;;2.00;;
84993;SDS011;75309;44.830;20.460;2024-03-07T07:43:27;5.70;;;1.60;;
84993;SDS011;75309;44.830;20.460;2024-03-07T07:46:08;6.00;;;1.80;;
84993;SDS011;75309;44.830;20.460;2024-03-07T07:48:37;5.10;;;2.20;;
84993;SDS011;75309;44.830;20.460;2024-03-07T07:51:04;5.00;;;2.00;;
84993;SDS011;75309;44.830;20.460;2024-03-07T07:53:33;4.40;;;1.40;;
84993;SDS011;75309;44.830;20.460;2024-03-07T07:56:01;5.00;;;2.10;;
84993;SDS011;75309;44.830;20.460;2024-03-07T07:58:27;5.70;;;2.10;;
84993;SDS011;75309;44.830;20.460;2024-03-07T08:00:54;4.80;;;1.70;;
84993;SDS011;75309;44.830;20.460;2024-03-07T08:03:22;4.70;;;1.80;;
84993;SDS011;75309;44.830;20.460;2024-03-07T08:05:48;4.50;;;1.70;;
84993;SDS011;75309;44.830;20.460;2024-03-07T08:08:16;4.40;;;1.60;;
84993;SDS011;75309;44.830;20.460;2024-03-07T08:10:44;5.70;;;2.30;;
84993;SDS011;75309;44.830;20.460;2024-03-07T08:13:12;5.80;;;2.40;;
84993;SDS011;75309;44.830;20.460;2024-03-07T08:15:41;4.70;;;2.00;;
84993;SDS011;75309;44.830;20.460;2024-03-07T08:18:09;5.30;;;2.00;;
84993;SDS011;75309;44.830;20.460;2024-03-07T08:20:39;5.50;;;2.50;;
84993;SDS011;75309;44.830;20.460;2024-03-07T08:23:08;6.60;;;2.50;;
84993;SDS011;75309;44.830;20.460;2024-03-07T08:25:36;5.80;;;2.00;;
84993;SDS011;75309;44.830;20.460;2024-03-07T08:28:06;6.50;;;2.70;;
84993;SDS011;75309;44.830;20.460;2024-03-07T08:30:33;6.60;;;2.50;;
84993;SDS011;75309;44.830;20.460;2024-03-07T08:33:01;6.40;;;2.60;;
84993;SDS011;75309;44.830;20.460;2024-03-07T08:35:31;6.20;;;2.30;;
84993;SDS011;75309;44.830;20.460;2024-03-07T08:37:59;6.20;;;2.90;;
84993;SDS011;75309;44.830;20.460;2024-03-07T08:40:28;6.50;;;2.60;;
84993;SDS011;75309;44.830;20.460;2024-03-07T08:43:00;5.90;;;2.70;;
84993;SDS011;75309;44.830;20.460;2024-03-07T08:45:28;5.70;;;2.60;;
84993;SDS011;75309;44.830;20.460;2024-03-07T08:47:56;7.00;;;2.50;;
84993;SDS011;75309;44.830;20.460;2024-03-07T08:50:26;6.50;;;2.80;;
84993;SDS011;75309;44.830;20.460;2024-03-07T08:52:56;6.30;;;2.60;;
84993;SDS011;75309;44.830;20.460;2024-03-07T08:57:53;6.20;;;2.50;;
84993;SDS011;75309;44.830;20.460;2024-03-07T09:00:21;5.70;;;2.60;;
84993;SDS011;75309;44.830;20.460;2024-03-07T09:05:24;5.60;;;2.90;;
84993;SDS011;75309;44.830;20.460;2024-03-07T09:07:53;6.00;;;2.50;;
84993;SDS011;75309;44.830;20.460;2024-03-07T09:10:21;6.70;;;3.30;;
84993;SDS011;75309;44.830;20.460;2024-03-07T09:12:51;9.30;;;3.20;;
84993;SDS011;75309;44.830;20.460;2024-03-07T09:15:19;7.10;;;3.50;;
84993;SDS011;75309;44.830;20.460;2024-03-07T09:17:48;7.20;;;3.50;;
84993;SDS011;75309;44.830;20.460;2024-03-07T09:20:15;6.90;;;3.10;;
84993;SDS011;75309;44.830;20.460;2024-03-07T09:22:43;7.30;;;3.20;;
84993;SDS011;75309;44.830;20.460;2024-03-07T09:25:11;8.20;;;3.80;;
84993;SDS011;75309;44.830;20.460;2024-03-07T09:27:42;6.50;;;3.20;;
84993;SDS011;75309;44.830;20.460;2024-03-07T09:30:10;6.50;;;3.00;;
84993;SDS011;75309;44.830;20.460;2024-03-07T09:32:45;7.50;;;4.10;;
84993;SDS011;75309;44.830;20.460;2024-03-07T09:35:12;8.50;;;3.70;;
84993;SDS011;75309;44.830;20.460;2024-03-07T09:37:40;7.00;;;3.50;;
84993;SDS011;75309;44.830;20.460;2024-03-07T09:40:08;7.20;;;3.30;;
84993;SDS011;75309;44.830;20.460;2024-03-07T09:42:43;7.90;;;4.00;;
84993;SDS011;75309;44.830;20.460;2024-03-07T09:45:19;7.90;;;3.70;;
84993;SDS011;75309;44.830;20.460;2024-03-07T09:47:48;6.70;;;3.50;;
84993;SDS011;75309;44.830;20.460;2024-03-07T09:50:18;8.70;;;3.90;;
84993;SDS011;75309;44.830;20.460;2024-03-07T09:52:52;9.00;;;4.00;;
84993;SDS011;75309;44.830;20.460;2024-03-07T09:55:21;8.00;;;3.90;;
84993;SDS011;75309;44.830;20.460;2024-03-07T09:57:54;6.90;;;3.70;;
84993;SDS011;75309;44.830;20.460;2024-03-07T10:00:24;7.70;;;4.20;;
84993;SDS011;75309;44.830;20.460;2024-03-07T10:03:08;8.60;;;4.10;;
84993;SDS011;75309;44.830;20.460;2024-03-07T10:05:36;8.70;;;4.20;;
84993;SDS011;75309;44.830;20.460;2024-03-07T10:08:05;8.00;;;4.10;;
84993;SDS011;75309;44.830;20.460;2024-03-07T10:10:33;8.20;;;4.00;;
84993;SDS011;75309;44.830;20.460;2024-03-07T10:13:00;10.10;;;4.70;;
84993;SDS011;75309;44.830;20.460;2024-03-07T10:17:55;7.80;;;4.10;;
84993;SDS011;75309;44.830;20.460;2024-03-07T10:20:23;8.80;;;3.80;;
84993;SDS011;75309;44.830;20.460;2024-03-07T10:22:52;8.60;;;4.20;;
84993;SDS011;75309;44.830;20.460;2024-03-07T10:25:22;8.50;;;4.20;;
84993;SDS011;75309;44.830;20.460;2024-03-07T10:27:54;9.10;;;4.10;;
84993;SDS011;75309;44.830;20.460;2024-03-07T10:30:21;8.50;;;4.00;;
84993;SDS011;75309;44.830;20.460;2024-03-07T10:32:58;8.10;;;4.00;;
84993;SDS011;75309;44.830;20.460;2024-03-07T10:35:29;7.70;;;4.10;;
84993;SDS011;75309;44.830;20.460;2024-03-07T10:37:58;7.00;;;4.10;;
84993;SDS011;75309;44.830;20.460;2024-03-07T10:40:34;8.40;;;4.20;;
84993;SDS011;75309;44.830;20.460;2024-03-07T10:45:41;9.60;;;4.00;;
84993;SDS011;75309;44.830;20.460;2024-03-07T10:48:18;8.20;;;4.00;;
84993;SDS011;75309;44.830;20.460;2024-03-07T10:51:40;8.20;;;4.00;;
84993;SDS011;75309;44.830;20.460;2024-03-07T10:59:37;8.00;;;3.50;;
84993;SDS011;75309;44.830;20.460;2024-03-07T11:04:54;8.50;;;3.90;;
84993;SDS011;75309;44.830;20.460;2024-03-07T11:07:25;8.00;;;3.90;;
84993;SDS011;75309;44.830;20.460;2024-03-07T11:09:53;9.20;;;4.20;;
84993;SDS011;75309;44.830;20.460;2024-03-07T11:12:22;7.50;;;3.90;;
84993;SDS011;75309;44.830;20.460;2024-03-07T11:14:50;8.10;;;4.10;;
84993;SDS011;75309;44.830;20.460;2024-03-07T11:17:19;8.60;;;4.30;;
84993;SDS011;75309;44.830;20.460;2024-03-07T11:19:50;7.40;;;4.00;;
84993;SDS011;75309;44.830;20.460;2024-03-07T11:22:29;8.90;;;4.30;;
84993;SDS011;75309;44.830;20.460;2024-03-07T11:25:05;9.10;;;4.80;;
84993;SDS011;75309;44.830;20.460;2024-03-07T11:30:09;9.00;;;4.30;;
84993;SDS011;75309;44.830;20.460;2024-03-07T11:32:38;9.10;;;4.70;;
84993;SDS011;75309;44.830;20.460;2024-03-07T11:35:13;8.90;;;4.00;;
84993;SDS011;75309;44.830;20.460;2024-03-07T11:37:44;8.30;;;4.30;;
84993;SDS011;75309;44.830;20.460;2024-03-07T11:41:00;9.30;;;4.50;;
84993;SDS011;75309;44.830;20.460;2024-03-07T11:43:11;9.30;;;4.60;;
84993;SDS011;75309;44.830;20.460;2024-03-07T11:45:39;7.90;;;4.20;;
84993;SDS011;75309;44.830;20.460;2024-03-07T11:48:11;8.60;;;4.40;;
84993;SDS011;75309;44.830;20.460;2024-03-07T11:50:39;8.40;;;4.20;;
84993;SDS011;75309;44.830;20.460;2024-03-07T11:53:08;10.20;;;5.20;;
84993;SDS011;75309;44.830;20.460;2024-03-07T11:55:36;9.80;;;5.00;;
84993;SDS011;75309;44.830;20.460;2024-03-07T11:58:16;9.30;;;4.10;;
84993;SDS011;75309;44.830;20.460;2024-03-07T12:00:51;7.60;;;3.90;;
84993;SDS011;75309;44.830;20.460;2024-03-07T12:03:19;9.80;;;4.10;;
84993;SDS011;75309;44.830;20.460;2024-03-07T12:05:52;7.80;;;4.20;;
84993;SDS011;75309;44.830;20.460;2024-03-07T12:08:20;9.10;;;4.60;;
84993;SDS011;75309;44.830;20.460;2024-03-07T12:10:53;8.00;;;4.00;;
84993;SDS011;75309;44.830;20.460;2024-03-07T12:13:22;7.70;;;4.10;;
84993;SDS011;75309;44.830;20.460;2024-03-07T12:15:51;7.80;;;4.00;;
84993;SDS011;75309;44.830;20.460;2024-03-07T12:18:21;9.80;;;4.40;;
84993;SDS011;75309;44.830;20.460;2024-03-07T12:20:51;8.00;;;4.60;;
84993;SDS011;75309;44.830;20.460;2024-03-07T12:23:22;8.90;;;4.60;;
84993;SDS011;75309;44.830;20.460;2024-03-07T12:26:04;9.80;;;4.70;;
84993;SDS011;75309;44.830;20.460;2024-03-07T12:28:32;8.60;;;4.20;;
84993;SDS011;75309;44.830;20.460;2024-03-07T12:31:00;8.70;;;4.50;;
84993;SDS011;75309;44.830;20.460;2024-03-07T12:33:31;8.60;;;4.40;;
84993;SDS011;75309;44.830;20.460;2024-03-07T12:36:05;9.00;;;4.20;;
84993;SDS011;75309;44.830;20.460;2024-03-07T12:38:32;9.80;;;5.20;;
84993;SDS011;75309;44.830;20.460;2024-03-07T12:41:06;8.70;;;4.90;;
84993;SDS011;75309;44.830;20.460;2024-03-07T12:43:40;8.90;;;4.70;;
84993;SDS011;75309;44.830;20.460;2024-03-07T12:46:12;9.20;;;4.60;;
84993;SDS011;75309;44.830;20.460;2024-03-07T12:51:09;10.30;;;4.80;;
84993;SDS011;75309;44.830;20.460;2024-03-07T12:53:37;9.20;;;5.00;;
84993;SDS011;75309;44.830;20.460;2024-03-07T12:56:04;9.60;;;4.90;;
84993;SDS011;75309;44.830;20.460;2024-03-07T12:58:31;7.40;;;3.90;;
84993;SDS011;75309;44.830;20.460;2024-03-07T13:00:59;8.70;;;4.20;;
84993;SDS011;75309;44.830;20.460;2024-03-07T13:03:26;8.10;;;4.30;;
84993;SDS011;75309;44.830;20.460;2024-03-07T13:05:56;8.80;;;5.00;;
84993;SDS011;75309;44.830;20.460;2024-03-07T13:08:27;8.90;;;4.30;;
84993;SDS011;75309;44.830;20.460;2024-03-07T13:10:56;9.40;;;4.90;;
84993;SDS011;75309;44.830;20.460;2024-03-07T13:13:25;7.90;;;4.30;;
84993;SDS011;75309;44.830;20.460;2024-03-07T13:15:53;8.90;;;3.50;;
84993;SDS011;75309;44.830;20.460;2024-03-07T13:18:21;8.90;;;4.70;;
84993;SDS011;75309;44.830;20.460;2024-03-07T13:20:48;7.70;;;4.20;;
84993;SDS011;75309;44.830;20.460;2024-03-07T13:23:15;8.30;;;4.40;;
84993;SDS011;75309;44.830;20.460;2024-03-07T13:25:42;9.40;;;4.30;;
84993;SDS011;75309;44.830;20.460;2024-03-07T13:30:50;10.00;;;5.00;;
84993;SDS011;75309;44.830;20.460;2024-03-07T13:33:21;8.40;;;5.00;;
84993;SDS011;75309;44.830;20.460;2024-03-07T13:35:50;9.70;;;4.90;;
84993;SDS011;75309;44.830;20.460;2024-03-07T13:38:20;9.90;;;5.20;;
84993;SDS011;75309;44.830;20.460;2024-03-07T13:40:51;9.20;;;4.70;;
84993;SDS011;75309;44.830;20.460;2024-03-07T13:43:19;9.50;;;4.90;;
84993;SDS011;75309;44.830;20.460;2024-03-07T13:45:45;9.00;;;4.60;;
84993;SDS011;75309;44.830;20.460;2024-03-07T13:48:15;8.40;;;4.30;;
84993;SDS011;75309;44.830;20.460;2024-03-07T13:50:48;8.40;;;4.10;;
84993;SDS011;75309;44.830;20.460;2024-03-07T13:53:26;8.00;;;4.30;;
84993;SDS011;75309;44.830;20.460;2024-03-07T14:01:33;9.80;;;4.60;;
84993;SDS011;75309;44.830;20.460;2024-03-07T14:16:31;10.80;;;5.20;;
84993;SDS011;75309;44.830;20.460;2024-03-07T14:22:16;8.50;;;4.60;;
84993;SDS011;75309;44.830;20.460;2024-03-07T14:28:13;11.40;;;5.50;;
84993;SDS011;75309;44.830;20.460;2024-03-07T14:30:53;9.10;;;4.90;;
84993;SDS011;75309;44.830;20.460;2024-03-07T14:33:30;10.00;;;5.30;;
84993;SDS011;75309;44.830;20.460;2024-03-07T14:36:13;9.40;;;5.40;;
84993;SDS011;75309;44.830;20.460;2024-03-07T14:38:55;8.20;;;4.60;;
84993;SDS011;75309;44.830;20.460;2024-03-07T14:41:40;9.50;;;5.00;;
84993;SDS011;75309;44.830;20.460;2024-03-07T14:44:16;9.00;;;4.70;;
84993;SDS011;75309;44.830;20.460;2024-03-07T14:46:45;8.40;;;4.80;;
84993;SDS011;75309;44.830;20.460;2024-03-07T14:49:16;9.50;;;4.90;;
84993;SDS011;75309;44.830;20.460;2024-03-07T14:51:44;9.20;;;5.10;;
84993;SDS011;75309;44.830;20.460;2024-03-07T14:54:26;9.80;;;4.90;;
84993;SDS011;75309;44.830;20.460;2024-03-07T14:56:53;8.70;;;5.20;;
84993;SDS011;75309;44.830;20.460;2024-03-07T14:59:20;9.30;;;4.80;;
84993;SDS011;75309;44.830;20.460;2024-03-07T15:01:47;10.60;;;5.30;;
84993;SDS011;75309;44.830;20.460;2024-03-07T15:04:18;9.20;;;5.70;;
84993;SDS011;75309;44.830;20.460;2024-03-07T15:06:47;9.40;;;5.10;;
84993;SDS011;75309;44.830;20.460;2024-03-07T15:09:15;8.60;;;5.40;;
84993;SDS011;75309;44.830;20.460;2024-03-07T15:11:42;12.30;;;5.60;;
84993;SDS011;75309;44.830;20.460;2024-03-07T15:14:09;10.50;;;6.20;;
84993;SDS011;75309;44.830;20.460;2024-03-07T15:16:36;9.90;;;5.50;;
84993;SDS011;75309;44.830;20.460;2024-03-07T15:19:05;10.20;;;5.70;;
84993;SDS011;75309;44.830;20.460;2024-03-07T15:21:33;9.60;;;5.00;;
84993;SDS011;75309;44.830;20.460;2024-03-07T15:24:04;9.60;;;5.80;;
84993;SDS011;75309;44.830;20.460;2024-03-07T15:26:33;8.60;;;5.00;;
84993;SDS011;75309;44.830;20.460;2024-03-07T15:29:01;10.30;;;5.50;;
84993;SDS011;75309;44.830;20.460;2024-03-07T15:31:29;10.00;;;5.20;;
84993;SDS011;75309;44.830;20.460;2024-03-07T15:33:56;8.60;;;4.30;;
84993;SDS011;75309;44.830;20.460;2024-03-07T15:36:34;11.40;;;5.20;;
84993;SDS011;75309;44.830;20.460;2024-03-07T15:39:00;10.50;;;5.40;;
84993;SDS011;75309;44.830;20.460;2024-03-07T15:41:46;10.40;;;5.60;;
84993;SDS011;75309;44.830;20.460;2024-03-07T15:44:14;10.20;;;5.80;;